Terminal Aerodrome Forecast
Issued by NWS

Home | Current Version | Previous Version | Text Only | Print | Product List | Glossary On
Versions: 1 2 3 4 5 6 7 8 9 10 11 12 13
000
FTUS46 KMTR 061130
TAFOAK
TAF
KOAK 061130Z 0612/0718 28010KT P6SM OVC012
     FM061900 28008KT P6SM SCT014
     FM062100 28016G21KT P6SM FEW020 SCT250
     FM070200 28012KT P6SM SCT015
     FM070400 28010KT P6SM BKN015
     FM070800 28008KT P6SM OVC010=

USA.gov is the U.S. government's official web portal to all federal, state and local government web resources and services.